Westview Chinook — VG3278 — position and weather

sailwx.info

Track history (hours):
 
Tides and Currents Weather Stations Pressure Air Temp Water Temp Dewpoint Dewpoint Depression Visibility Wind Speed Wind Dir Waves Ship Positions

Westview Chinook

Last reported at 2015-May-05 08:33 UTC. Time now 2015-May-05 09:13 UTC.
Position N 49°13' W 122°48'.

Length 16 m; draft 3.5 m.

Type: Towing. MMSI: 316005622.

Date/timePositionNaut miles runAvg speedWind from/ knotsBaromVisibWave heightAir tempDewpointWater temp
2015-May-05 08:33N 49°13' W 122°48'6 6.0
2015-May-05 07:33N 49°10' W 122°56'2 1.6
2015-May-05 06:33N 49°11' W 122°55'6 6.3
2015-May-05 05:33N 49°13' W 122°46'3 3.2
2015-May-05 04:33N 49°11' W 122°42'0 0.4
2015-May-05 03:33N 49°11' W 122°42'6 6.2
2015-May-05 02:33N 49°13' W 122°51'4 3.7
2015-May-05 01:33N 49°12' W 122°56'3 3.5
2015-May-05 00:33N 49°12' W 123°02'4 4.4
2015-May-04 23:33N 49°12' W 123°08'9 9.2
2015-May-04 22:33N 49°16' W 123°21'10 9.7
2015-May-04 21:33N 49°14' W 123°36'9 9.4
2015-May-04 20:33N 49°13' W 123°50'3 3.4
2015-May-04 19:34N 49°10' W 123°53'6 6.0
2015-May-04 18:34N 49°13' W 123°45'7 7.3
2015-May-04 17:33N 49°11' W 123°35'8 7.5
2015-May-04 16:34N 49°08' W 123°24'8 8.4
2015-May-04 15:33N 49°07' W 123°11'7 7.2
2015-May-04 14:33N 49°09' W 123°01'9 8.9
2015-May-04 13:34N 49°13' W 122°49'2 1.9
2015-May-04 12:33N 49°14' W 122°46'0 0.0
2015-May-04 11:33N 49°14' W 122°46'0 0.0
2015-May-04 10:33N 49°14' W 122°46'0 0.0
2015-May-04 09:33N 49°14' W 122°46'0 0.0
2015-May-04 08:33N 49°14' W 122°46'0 0.0
2015-May-04 07:33N 49°14' W 122°46'0 0.0
2015-May-04 06:33N 49°14' W 122°46'0 0.0
2015-May-04 05:33N 49°14' W 122°46'0 0.0
2015-May-04 04:18N 49°14' W 122°46'0 0.0
2015-May-04 03:24N 49°14' W 122°46'0 0.0
2015-May-04 02:31N 49°14' W 122°46'0 0.0
2015-May-04 01:33N 49°14' W 122°46'0 0.0
2015-May-04 00:07N 49°14' W 122°46'0 0.0
2015-May-03 23:33N 49°14' W 122°46'0 0.0
2015-May-03 22:33N 49°14' W 122°46'0 0.0
2015-May-03 21:33N 49°14' W 122°46'0 0.0
2015-May-03 20:33N 49°14' W 122°46'0 0.0
2015-May-03 19:33N 49°14' W 122°46'0 0.0
2015-May-03 18:33N 49°14' W 122°46'0 0.0
2015-May-03 17:33N 49°14' W 122°46'0 0.0
2015-May-03 16:33N 49°14' W 122°46'0 0.0
2015-May-03 15:33N 49°14' W 122°46'0 0.0
2015-May-03 14:33N 49°14' W 122°46'0 0.0
2015-May-03 13:33N 49°14' W 122°46'0 0.0
2015-May-03 12:33N 49°14' W 122°46'0 0.0
2015-May-03 11:33N 49°14' W 122°46'0 0.0
2015-May-03 10:33N 49°14' W 122°46'0 0.0
2015-May-03 09:33N 49°14' W 122°46'0 0.0
2015-May-03 08:33N 49°14' W 122°46'0 0.0
2015-May-03 07:33N 49°14' W 122°46'0 0.0
2015-May-03 06:34N 49°14' W 122°46'0 0.0
2015-May-03 05:33N 49°14' W 122°46'0 0.0
2015-May-03 04:33N 49°14' W 122°46'0 0.0
2015-May-03 03:33N 49°14' W 122°46'0 0.0
2015-May-03 02:34N 49°14' W 122°46'0 0.0
2015-May-03 01:33N 49°14' W 122°46'0 0.0
2015-May-03 00:33N 49°14' W 122°46'0 0.0
2015-May-02 23:33N 49°14' W 122°46'0 0.0
2015-May-02 22:33N 49°14' W 122°46'0 0.0
2015-May-02 21:33N 49°14' W 122°46'0 0.0
2015-May-02 20:33N 49°14' W 122°46'0 0.0
2015-May-02 19:33N 49°14' W 122°46'0 0.0
2015-May-02 18:33N 49°14' W 122°46'0 0.0
2015-May-02 17:34N 49°14' W 122°46'0 0.0
2015-May-02 16:33N 49°14' W 122°46'0 0.0
2015-May-02 15:33N 49°14' W 122°46'0 0.0
2015-May-02 14:34N 49°14' W 122°46'0 0.0
2015-May-02 13:34N 49°14' W 122°46'0 0.0
2015-May-02 12:33N 49°14' W 122°46'0 0.0
2015-May-02 11:33N 49°14' W 122°46'0 0.0
2015-May-02 10:33N 49°14' W 122°46'0 0.0
2015-May-02 09:33N 49°14' W 122°46'0 0.0
2015-May-02 08:33N 49°14' W 122°46'1 1.4
2015-May-02 07:33N 49°13' W 122°48'5 4.5
2015-May-02 06:33N 49°12' W 122°55'2 1.7
2015-May-02 05:33N 49°13' W 122°52'5 4.5
2015-May-02 04:33N 49°14' W 122°46'3 3.1
2015-May-02 03:33N 49°13' W 122°50'4 4.1
2015-May-02 02:33N 49°11' W 122°56'2 2.0
2015-May-02 01:33N 49°09' W 122°57'5 4.6
2015-May-02 00:29N 49°13' W 122°53'3 3.2
2015-May-01 23:33N 49°11' W 122°56'2 1.9
2015-May-01 22:23N 49°13' W 122°53'3 2.8
2015-May-01 21:13N 49°13' W 122°48'5 5.7
2015-May-01 20:22N 49°12' W 122°55'3 1.5
2015-May-01 18:33N 49°13' W 122°52'4 0.9
2015-May-01 14:10N 49°14' W 122°46'3 4.7
2015-May-01 13:33N 49°13' W 122°50'7 7.1
2015-May-01 12:33N 49°09' W 122°59'2 2.4
2015-May-01 11:33N 49°08' W 123°03'0 0.0
2015-May-01 10:33N 49°08' W 123°03'0 0.0
2015-May-01 09:33N 49°08' W 123°03'0 0.0
2015-May-01 08:33N 49°08' W 123°03'6 5.6
2015-May-01 07:33N 49°11' W 122°55'6 5.7
2015-May-01 06:33N 49°12' W 123°04'3 3.0
2015-May-01 05:33N 49°12' W 123°08'5 5.1
2015-May-01 04:33N 49°15' W 123°15'0 0.3
2015-May-01 03:33N 49°15' W 123°15'0 0.4
2015-May-01 02:33N 49°15' W 123°16'0 0.5
2015-May-01 01:33N 49°15' W 123°15'3 2.6
2015-May-01 00:33N 49°16' W 123°18'6 6.4
2015-Apr-30 23:33N 49°20' W 123°26'6 5.7
2015-Apr-30 22:33N 49°26' W 123°27'5 4.5
2015-Apr-30 21:21N 49°31' W 123°29'0 0.4
2015-Apr-30 20:33N 49°31' W 123°29'2 1.8
2015-Apr-30 19:33N 49°29' W 123°28'4 4.1
2015-Apr-30 18:33N 49°25' W 123°26'7 7.2
2015-Apr-30 17:33N 49°19' W 123°23'8 7.9
2015-Apr-30 16:33N 49°14' W 123°13'2 1.6
2015-Apr-30 15:33N 49°13' W 123°11'9 8.7
2015-Apr-30 14:33N 49°11' W 122°58'2 2.4
2015-Apr-30 13:33N 49°12' W 122°55'1 0.9
2015-Apr-30 12:33N 49°13' W 122°54'0 0.0
2015-Apr-30 11:33N 49°13' W 122°54'0 0.0
2015-Apr-30 10:33N 49°13' W 122°54'0 0.0
2015-Apr-30 09:33N 49°13' W 122°54'0 0.0
2015-Apr-30 08:33N 49°13' W 122°54'0 0.0
2015-Apr-30 07:33N 49°13' W 122°54'0 0.0
2015-Apr-30 06:33N 49°13' W 122°54'1 0.9
2015-Apr-30 05:33N 49°12' W 122°55'2 2.1
2015-Apr-30 04:33N 49°11' W 122°58'2 1.6
2015-Apr-30 03:33N 49°11' W 122°55'0 0.1
2015-Apr-30 02:33N 49°11' W 122°55'5 5.0
2015-Apr-30 01:33N 49°13' W 122°48'2 1.7
2015-Apr-30 00:33N 49°14' W 122°46'0 0.0
2015-Apr-29 23:33N 49°14' W 122°46'0 0.0
2015-Apr-29 22:33N 49°14' W 122°46'0 0.0
2015-Apr-29 21:33N 49°14' W 122°46'0 0.0
2015-Apr-29 20:33N 49°14' W 122°46'0 0.0
2015-Apr-29 19:33N 49°14' W 122°46'0 0.0
2015-Apr-29 18:33N 49°14' W 122°46'0 0.0
2015-Apr-29 17:33N 49°14' W 122°46'0 0.0
2015-Apr-29 16:33N 49°14' W 122°46'1 0.9
2015-Apr-29 15:33N 49°13' W 122°47'2 1.8
2015-Apr-29 14:33N 49°13' W 122°50'1 1.3
2015-Apr-29 13:33N 49°13' W 122°52'2 1.8
2015-Apr-29 12:33N 49°12' W 122°54'2 2.4
2015-Apr-29 11:34N 49°10' W 122°56'5 4.8
2015-Apr-29 10:33N 49°13' W 122°50'1 1.2
2015-Apr-29 09:34N 49°13' W 122°48'3 3.0
2015-Apr-29 08:33N 49°13' W 122°53'2 2.2
2015-Apr-29 07:33N 49°12' W 122°55'7 6.9
2015-Apr-29 06:33N 49°13' W 122°45'5 4.9
2015-Apr-29 05:33N 49°13' W 122°52'5 4.8
2015-Apr-29 04:33N 49°09' W 122°57'7 6.5
2015-Apr-29 03:33N 49°13' W 122°49'6 5.2
2015-Apr-29 02:30N 49°11' W 122°41'3 3.1
2015-Apr-29 01:33N 49°13' W 122°45'1 1.4
2015-Apr-29 00:32N 49°14' W 122°46'0 0.0
2015-Apr-28 23:34N 49°14' W 122°46'0 0.0
2015-Apr-28 22:33N 49°14' W 122°46'6 5.9
2015-Apr-28 21:33N 49°12' W 122°54'2 2.2
2015-Apr-28 20:33N 49°11' W 122°58'7 6.6
2015-Apr-28 19:33N 49°12' W 123°08'5 4.5
2015-Apr-28 18:34N 49°14' W 123°14'5 5.2
2015-Apr-28 17:33N 49°17' W 123°21'7 6.5
2015-Apr-28 16:33N 49°10' W 123°19'5 4.9
2015-Apr-28 15:33N 49°08' W 123°13'7 7.3
2015-Apr-28 14:34N 49°09' W 123°02'9 9.1
2015-Apr-28 13:33N 49°13' W 122°50'3 2.6
2015-Apr-28 12:33N 49°14' W 122°46'0 0.0
2015-Apr-28 11:31N 49°14' W 122°46'1 0.7
2015-Apr-28 10:34N 49°13' W 122°46'4 3.6
2015-Apr-28 09:33N 49°11' W 122°41'6 5.9
2015-Apr-28 08:33N 49°13' W 122°50'7 6.6
2015-Apr-28 07:34N 49°10' W 122°58'4 3.7
2015-Apr-28 06:34N 49°12' W 123°02'6 5.8
2015-Apr-28 05:33N 49°13' W 123°11'6 6.1
2015-Apr-28 04:33N 49°18' W 123°16'3 3.2
2015-Apr-28 03:33N 49°15' W 123°16'2 2.1
2015-Apr-28 02:34N 49°14' W 123°13'6 5.8
2015-Apr-28 01:34N 49°12' W 123°05'1 1.2
2015-Apr-28 00:33N 49°12' W 123°03'0 0.0
2015-Apr-27 23:34N 49°12' W 123°03'0 0.0
2015-Apr-27 22:33N 49°12' W 123°03'4 4.4
2015-Apr-27 21:33N 49°12' W 122°56'2 1.6
2015-Apr-27 20:33N 49°10' W 122°56'5 4.5
2015-Apr-27 19:33N 49°13' W 122°50'5 4.6
2015-Apr-27 18:33N 49°12' W 122°44'1 1.0
2015-Apr-27 17:33N 49°13' W 122°44'2 1.8
2015-Apr-27 16:33N 49°14' W 122°46'0 0.0
2015-Apr-27 15:33N 49°14' W 122°46'0 0.0
2015-Apr-27 14:33N 49°14' W 122°46'0 0.2
2015-Apr-27 13:32N 49°14' W 122°46'0 0.2
2015-Apr-27 12:33N 49°14' W 122°46'0 0.0
2015-Apr-27 11:33N 49°14' W 122°46'0 0.0
2015-Apr-27 10:33N 49°14' W 122°46'0 0.0
2015-Apr-27 09:33N 49°14' W 122°46'0 0.0
2015-Apr-27 08:34N 49°14' W 122°46'0 0.0
2015-Apr-27 07:33N 49°14' W 122°46'0 0.0
2015-Apr-27 06:34N 49°14' W 122°46'0 0.0
2015-Apr-27 05:33N 49°14' W 122°46'0 0.0
2015-Apr-27 04:33N 49°14' W 122°46'0 0.0
2015-Apr-27 03:33N 49°14' W 122°46'0 0.0
2015-Apr-27 02:33N 49°14' W 122°46'0 0.0
2015-Apr-27 01:33N 49°14' W 122°46'0 0.0
2015-Apr-27 00:33N 49°14' W 122°46'0 0.0
2015-Apr-26 23:33N 49°14' W 122°46'0 0.0
2015-Apr-26 22:33N 49°14' W 122°46'0 0.0
2015-Apr-26 21:33N 49°14' W 122°46'0 0.0
2015-Apr-26 20:33N 49°14' W 122°46'0 0.0
2015-Apr-26 19:33N 49°14' W 122°46'0 0.0
2015-Apr-26 18:33N 49°14' W 122°46'0 0.0
2015-Apr-26 17:33N 49°14' W 122°46'3 3.2
2015-Apr-26 16:33N 49°13' W 122°51'7 6.5
2015-Apr-26 15:33N 49°10' W 122°59'3 2.9
2015-Apr-26 14:33N 49°08' W 123°03'4 3.6
2015-Apr-26 13:33N 49°06' W 123°08'3 3.0
2015-Apr-26 12:34N 49°07' W 123°12'4 3.8
2015-Apr-26 11:33N 49°06' W 123°18'6 5.8
2015-Apr-26 10:33N 49°04' W 123°26'6 6.2
2015-Apr-26 09:33N 49°01' W 123°35'4 4.2
2015-Apr-26 08:33N 48°58' W 123°37'6 6.5
2015-Apr-26 07:33N 48°51' W 123°35'6 5.6
2015-Apr-26 06:32N 48°46' W 123°34'1 1.1
2015-Apr-26 05:33N 48°45' W 123°34'9 9.1
2015-Apr-26 04:33N 48°53' W 123°36'8 8.4
2015-Apr-26 03:33N 49°02' W 123°34'1111.1
2015-Apr-26 02:33N 49°06' W 123°18'1010.4
2015-Apr-26 01:33N 49°09' W 123°03'1111.0
2015-Apr-26 00:33N 49°13' W 122°48'1 1.5
2015-Apr-25 23:33N 49°14' W 122°46'0 0.0
2015-Apr-25 22:33N 49°14' W 122°46'0 0.0
2015-Apr-25 21:34N 49°14' W 122°46'0 0.0
2015-Apr-25 20:34N 49°14' W 122°46'0 0.0
2015-Apr-25 19:33N 49°14' W 122°46'0 0.0
2015-Apr-25 18:34N 49°14' W 122°46'0 0.0
2015-Apr-25 17:33N 49°14' W 122°46'0 0.0
2015-Apr-25 16:34N 49°14' W 122°46'5 5.4
2015-Apr-25 15:33N 49°12' W 122°54'3 2.6
2015-Apr-25 14:33N 49°11' W 122°58'2 1.9
2015-Apr-25 13:33N 49°10' W 122°57'5 4.5
2015-Apr-25 12:33N 49°08' W 123°04'6 6.4
2015-Apr-25 11:34N 49°08' W 123°13'8 8.0
2015-Apr-25 10:33N 49°04' W 123°24'9 9.3
2015-Apr-25 09:33N 48°59' W 123°36'  
Track history (hours):
 
Tides and Currents Weather Stations Pressure Air Temp Water Temp Dewpoint Dewpoint Depression Visibility Wind Speed Wind Dir Waves Ship Positions

Westview Chinook

Last reported at 2015-May-05 08:33 UTC. Time now 2015-May-05 09:13 UTC.
Position N 49°13' W 122°48'.

Length 16 m; draft 3.5 m.

Type: Towing. MMSI: 316005622.

Date/timePositionNaut miles runAvg speedWind from/ knotsBaromVisibWave heightAir tempDewpointWater temp
2015-May-05 08:33N 49°13' W 122°48'6 6.0
2015-May-05 07:33N 49°10' W 122°56'2 1.6
2015-May-05 06:33N 49°11' W 122°55'6 6.3
2015-May-05 05:33N 49°13' W 122°46'3 3.2
2015-May-05 04:33N 49°11' W 122°42'0 0.4
2015-May-05 03:33N 49°11' W 122°42'6 6.2
2015-May-05 02:33N 49°13' W 122°51'4 3.7
2015-May-05 01:33N 49°12' W 122°56'3 3.5
2015-May-05 00:33N 49°12' W 123°02'4 4.4
2015-May-04 23:33N 49°12' W 123°08'9 9.2
2015-May-04 22:33N 49°16' W 123°21'10 9.7
2015-May-04 21:33N 49°14' W 123°36'9 9.4
2015-May-04 20:33N 49°13' W 123°50'3 3.4
2015-May-04 19:34N 49°10' W 123°53'6 6.0
2015-May-04 18:34N 49°13' W 123°45'7 7.3
2015-May-04 17:33N 49°11' W 123°35'8 7.5
2015-May-04 16:34N 49°08' W 123°24'8 8.4
2015-May-04 15:33N 49°07' W 123°11'7 7.2
2015-May-04 14:33N 49°09' W 123°01'9 8.9
2015-May-04 13:34N 49°13' W 122°49'2 1.9
2015-May-04 12:33N 49°14' W 122°46'0 0.0
2015-May-04 11:33N 49°14' W 122°46'0 0.0
2015-May-04 10:33N 49°14' W 122°46'0 0.0
2015-May-04 09:33N 49°14' W 122°46'0 0.0
2015-May-04 08:33N 49°14' W 122°46'0 0.0
2015-May-04 07:33N 49°14' W 122°46'0 0.0
2015-May-04 06:33N 49°14' W 122°46'0 0.0
2015-May-04 05:33N 49°14' W 122°46'0 0.0
2015-May-04 04:18N 49°14' W 122°46'0 0.0
2015-May-04 03:24N 49°14' W 122°46'0 0.0
2015-May-04 02:31N 49°14' W 122°46'0 0.0
2015-May-04 01:33N 49°14' W 122°46'0 0.0
2015-May-04 00:07N 49°14' W 122°46'0 0.0
2015-May-03 23:33N 49°14' W 122°46'0 0.0
2015-May-03 22:33N 49°14' W 122°46'0 0.0
2015-May-03 21:33N 49°14' W 122°46'0 0.0
2015-May-03 20:33N 49°14' W 122°46'0 0.0
2015-May-03 19:33N 49°14' W 122°46'0 0.0
2015-May-03 18:33N 49°14' W 122°46'0 0.0
2015-May-03 17:33N 49°14' W 122°46'0 0.0
2015-May-03 16:33N 49°14' W 122°46'0 0.0
2015-May-03 15:33N 49°14' W 122°46'0 0.0
2015-May-03 14:33N 49°14' W 122°46'0 0.0
2015-May-03 13:33N 49°14' W 122°46'0 0.0
2015-May-03 12:33N 49°14' W 122°46'0 0.0
2015-May-03 11:33N 49°14' W 122°46'0 0.0
2015-May-03 10:33N 49°14' W 122°46'0 0.0
2015-May-03 09:33N 49°14' W 122°46'0 0.0
2015-May-03 08:33N 49°14' W 122°46'0 0.0
2015-May-03 07:33N 49°14' W 122°46'0 0.0
2015-May-03 06:34N 49°14' W 122°46'0 0.0
2015-May-03 05:33N 49°14' W 122°46'0 0.0
2015-May-03 04:33N 49°14' W 122°46'0 0.0
2015-May-03 03:33N 49°14' W 122°46'0 0.0
2015-May-03 02:34N 49°14' W 122°46'0 0.0
2015-May-03 01:33N 49°14' W 122°46'0 0.0
2015-May-03 00:33N 49°14' W 122°46'0 0.0
2015-May-02 23:33N 49°14' W 122°46'0 0.0
2015-May-02 22:33N 49°14' W 122°46'0 0.0
2015-May-02 21:33N 49°14' W 122°46'0 0.0
2015-May-02 20:33N 49°14' W 122°46'0 0.0
2015-May-02 19:33N 49°14' W 122°46'0 0.0
2015-May-02 18:33N 49°14' W 122°46'0 0.0
2015-May-02 17:34N 49°14' W 122°46'0 0.0
2015-May-02 16:33N 49°14' W 122°46'0 0.0
2015-May-02 15:33N 49°14' W 122°46'0 0.0
2015-May-02 14:34N 49°14' W 122°46'0 0.0
2015-May-02 13:34N 49°14' W 122°46'0 0.0
2015-May-02 12:33N 49°14' W 122°46'0 0.0
2015-May-02 11:33N 49°14' W 122°46'0 0.0
2015-May-02 10:33N 49°14' W 122°46'0 0.0
2015-May-02 09:33N 49°14' W 122°46'0 0.0
2015-May-02 08:33N 49°14' W 122°46'1 1.4
2015-May-02 07:33N 49°13' W 122°48'5 4.5
2015-May-02 06:33N 49°12' W 122°55'2 1.7
2015-May-02 05:33N 49°13' W 122°52'5 4.5
2015-May-02 04:33N 49°14' W 122°46'3 3.1
2015-May-02 03:33N 49°13' W 122°50'4 4.1
2015-May-02 02:33N 49°11' W 122°56'2 2.0
2015-May-02 01:33N 49°09' W 122°57'5 4.6
2015-May-02 00:29N 49°13' W 122°53'3 3.2
2015-May-01 23:33N 49°11' W 122°56'2 1.9
2015-May-01 22:23N 49°13' W 122°53'3 2.8
2015-May-01 21:13N 49°13' W 122°48'5 5.7
2015-May-01 20:22N 49°12' W 122°55'3 1.5
2015-May-01 18:33N 49°13' W 122°52'4 0.9
2015-May-01 14:10N 49°14' W 122°46'3 4.7
2015-May-01 13:33N 49°13' W 122°50'7 7.1
2015-May-01 12:33N 49°09' W 122°59'2 2.4
2015-May-01 11:33N 49°08' W 123°03'0 0.0
2015-May-01 10:33N 49°08' W 123°03'0 0.0
2015-May-01 09:33N 49°08' W 123°03'0 0.0
2015-May-01 08:33N 49°08' W 123°03'6 5.6
2015-May-01 07:33N 49°11' W 122°55'6 5.7
2015-May-01 06:33N 49°12' W 123°04'3 3.0
2015-May-01 05:33N 49°12' W 123°08'5 5.1
2015-May-01 04:33N 49°15' W 123°15'0 0.3
2015-May-01 03:33N 49°15' W 123°15'0 0.4
2015-May-01 02:33N 49°15' W 123°16'0 0.5
2015-May-01 01:33N 49°15' W 123°15'3 2.6
2015-May-01 00:33N 49°16' W 123°18'6 6.4
2015-Apr-30 23:33N 49°20' W 123°26'6 5.7
2015-Apr-30 22:33N 49°26' W 123°27'5 4.5
2015-Apr-30 21:21N 49°31' W 123°29'0 0.4
2015-Apr-30 20:33N 49°31' W 123°29'2 1.8
2015-Apr-30 19:33N 49°29' W 123°28'4 4.1
2015-Apr-30 18:33N 49°25' W 123°26'7 7.2
2015-Apr-30 17:33N 49°19' W 123°23'8 7.9
2015-Apr-30 16:33N 49°14' W 123°13'2 1.6
2015-Apr-30 15:33N 49°13' W 123°11'9 8.7
2015-Apr-30 14:33N 49°11' W 122°58'2 2.4
2015-Apr-30 13:33N 49°12' W 122°55'1 0.9
2015-Apr-30 12:33N 49°13' W 122°54'0 0.0
2015-Apr-30 11:33N 49°13' W 122°54'0 0.0
2015-Apr-30 10:33N 49°13' W 122°54'0 0.0
2015-Apr-30 09:33N 49°13' W 122°54'0 0.0
2015-Apr-30 08:33N 49°13' W 122°54'0 0.0
2015-Apr-30 07:33N 49°13' W 122°54'0 0.0
2015-Apr-30 06:33N 49°13' W 122°54'1 0.9
2015-Apr-30 05:33N 49°12' W 122°55'2 2.1
2015-Apr-30 04:33N 49°11' W 122°58'2 1.6
2015-Apr-30 03:33N 49°11' W 122°55'0 0.1
2015-Apr-30 02:33N 49°11' W 122°55'5 5.0
2015-Apr-30 01:33N 49°13' W 122°48'2 1.7
2015-Apr-30 00:33N 49°14' W 122°46'0 0.0
2015-Apr-29 23:33N 49°14' W 122°46'0 0.0
2015-Apr-29 22:33N 49°14' W 122°46'0 0.0
2015-Apr-29 21:33N 49°14' W 122°46'0 0.0
2015-Apr-29 20:33N 49°14' W 122°46'0 0.0
2015-Apr-29 19:33N 49°14' W 122°46'0 0.0
2015-Apr-29 18:33N 49°14' W 122°46'0 0.0
2015-Apr-29 17:33N 49°14' W 122°46'0 0.0
2015-Apr-29 16:33N 49°14' W 122°46'1 0.9
2015-Apr-29 15:33N 49°13' W 122°47'2 1.8
2015-Apr-29 14:33N 49°13' W 122°50'1 1.3
2015-Apr-29 13:33N 49°13' W 122°52'2 1.8
2015-Apr-29 12:33N 49°12' W 122°54'2 2.4
2015-Apr-29 11:34N 49°10' W 122°56'5 4.8
2015-Apr-29 10:33N 49°13' W 122°50'1 1.2
2015-Apr-29 09:34N 49°13' W 122°48'3 3.0
2015-Apr-29 08:33N 49°13' W 122°53'2 2.2
2015-Apr-29 07:33N 49°12' W 122°55'7 6.9
2015-Apr-29 06:33N 49°13' W 122°45'5 4.9
2015-Apr-29 05:33N 49°13' W 122°52'5 4.8
2015-Apr-29 04:33N 49°09' W 122°57'7 6.5
2015-Apr-29 03:33N 49°13' W 122°49'6 5.2
2015-Apr-29 02:30N 49°11' W 122°41'3 3.1
2015-Apr-29 01:33N 49°13' W 122°45'1 1.4
2015-Apr-29 00:32N 49°14' W 122°46'0 0.0
2015-Apr-28 23:34N 49°14' W 122°46'0 0.0
2015-Apr-28 22:33N 49°14' W 122°46'6 5.9
2015-Apr-28 21:33N 49°12' W 122°54'2 2.2
2015-Apr-28 20:33N 49°11' W 122°58'7 6.6
2015-Apr-28 19:33N 49°12' W 123°08'5 4.5
2015-Apr-28 18:34N 49°14' W 123°14'5 5.2
2015-Apr-28 17:33N 49°17' W 123°21'7 6.5
2015-Apr-28 16:33N 49°10' W 123°19'5 4.9
2015-Apr-28 15:33N 49°08' W 123°13'7 7.3
2015-Apr-28 14:34N 49°09' W 123°02'9 9.1
2015-Apr-28 13:33N 49°13' W 122°50'3 2.6
2015-Apr-28 12:33N 49°14' W 122°46'0 0.0
2015-Apr-28 11:31N 49°14' W 122°46'1 0.7
2015-Apr-28 10:34N 49°13' W 122°46'4 3.6
2015-Apr-28 09:33N 49°11' W 122°41'6 5.9
2015-Apr-28 08:33N 49°13' W 122°50'7 6.6
2015-Apr-28 07:34N 49°10' W 122°58'4 3.7
2015-Apr-28 06:34N 49°12' W 123°02'6 5.8
2015-Apr-28 05:33N 49°13' W 123°11'6 6.1
2015-Apr-28 04:33N 49°18' W 123°16'3 3.2
2015-Apr-28 03:33N 49°15' W 123°16'2 2.1
2015-Apr-28 02:34N 49°14' W 123°13'6 5.8
2015-Apr-28 01:34N 49°12' W 123°05'1 1.2
2015-Apr-28 00:33N 49°12' W 123°03'0 0.0
2015-Apr-27 23:34N 49°12' W 123°03'0 0.0
2015-Apr-27 22:33N 49°12' W 123°03'4 4.4
2015-Apr-27 21:33N 49°12' W 122°56'2 1.6
2015-Apr-27 20:33N 49°10' W 122°56'5 4.5
2015-Apr-27 19:33N 49°13' W 122°50'5 4.6
2015-Apr-27 18:33N 49°12' W 122°44'1 1.0
2015-Apr-27 17:33N 49°13' W 122°44'2 1.8
2015-Apr-27 16:33N 49°14' W 122°46'0 0.0
2015-Apr-27 15:33N 49°14' W 122°46'0 0.0
2015-Apr-27 14:33N 49°14' W 122°46'0 0.2
2015-Apr-27 13:32N 49°14' W 122°46'0 0.2
2015-Apr-27 12:33N 49°14' W 122°46'0 0.0
2015-Apr-27 11:33N 49°14' W 122°46'0 0.0
2015-Apr-27 10:33N 49°14' W 122°46'0 0.0
2015-Apr-27 09:33N 49°14' W 122°46'0 0.0
2015-Apr-27 08:34N 49°14' W 122°46'0 0.0
2015-Apr-27 07:33N 49°14' W 122°46'0 0.0
2015-Apr-27 06:34N 49°14' W 122°46'0 0.0
2015-Apr-27 05:33N 49°14' W 122°46'0 0.0
2015-Apr-27 04:33N 49°14' W 122°46'0 0.0
2015-Apr-27 03:33N 49°14' W 122°46'0 0.0
2015-Apr-27 02:33N 49°14' W 122°46'0 0.0
2015-Apr-27 01:33N 49°14' W 122°46'0 0.0
2015-Apr-27 00:33N 49°14' W 122°46'0 0.0
2015-Apr-26 23:33N 49°14' W 122°46'0 0.0
2015-Apr-26 22:33N 49°14' W 122°46'0 0.0
2015-Apr-26 21:33N 49°14' W 122°46'0 0.0
2015-Apr-26 20:33N 49°14' W 122°46'0 0.0
2015-Apr-26 19:33N 49°14' W 122°46'0 0.0
2015-Apr-26 18:33N 49°14' W 122°46'0 0.0
2015-Apr-26 17:33N 49°14' W 122°46'3 3.2
2015-Apr-26 16:33N 49°13' W 122°51'7 6.5
2015-Apr-26 15:33N 49°10' W 122°59'3 2.9
2015-Apr-26 14:33N 49°08' W 123°03'4 3.6
2015-Apr-26 13:33N 49°06' W 123°08'3 3.0
2015-Apr-26 12:34N 49°07' W 123°12'4 3.8
2015-Apr-26 11:33N 49°06' W 123°18'6 5.8
2015-Apr-26 10:33N 49°04' W 123°26'6 6.2
2015-Apr-26 09:33N 49°01' W 123°35'4 4.2
2015-Apr-26 08:33N 48°58' W 123°37'6 6.5
2015-Apr-26 07:33N 48°51' W 123°35'6 5.6
2015-Apr-26 06:32N 48°46' W 123°34'1 1.1
2015-Apr-26 05:33N 48°45' W 123°34'9 9.1
2015-Apr-26 04:33N 48°53' W 123°36'8 8.4
2015-Apr-26 03:33N 49°02' W 123°34'1111.1
2015-Apr-26 02:33N 49°06' W 123°18'1010.4
2015-Apr-26 01:33N 49°09' W 123°03'1111.0
2015-Apr-26 00:33N 49°13' W 122°48'1 1.5
2015-Apr-25 23:33N 49°14' W 122°46'0 0.0
2015-Apr-25 22:33N 49°14' W 122°46'0 0.0
2015-Apr-25 21:34N 49°14' W 122°46'0 0.0
2015-Apr-25 20:34N 49°14' W 122°46'0 0.0
2015-Apr-25 19:33N 49°14' W 122°46'0 0.0
2015-Apr-25 18:34N 49°14' W 122°46'0 0.0
2015-Apr-25 17:33N 49°14' W 122°46'0 0.0
2015-Apr-25 16:34N 49°14' W 122°46'5 5.4
2015-Apr-25 15:33N 49°12' W 122°54'3 2.6
2015-Apr-25 14:33N 49°11' W 122°58'2 1.9
2015-Apr-25 13:33N 49°10' W 122°57'5 4.5
2015-Apr-25 12:33N 49°08' W 123°04'6 6.4
2015-Apr-25 11:34N 49°08' W 123°13'8 8.0
2015-Apr-25 10:33N 49°04' W 123°24'9 9.3
2015-Apr-25 09:33N 48°59' W 123°36'  

Dump ship's entire track history